Time;durP1;ratioP1;P1;durP2;ratioP2;P2;SDS_P1;SDS_P2;PMS_P1;PMS_P2;Temp;Humidity;BMP_temperature;BMP_pressure;BME280_temperature;BME280_humidity;BME280_pressure;Samples;Min_cycle;Max_cycle;Signal;HPM_P1;HPM_P2
2022/08/28 00:01:58;;;;;;;26.70;12.10;;;;;;;40.47;33.16;101168.38;5031918;28;20474;-70
2022/08/28 00:04:24;;;;;;;40.37;16.27;;;;;;;40.34;33.95;101171.19;5031784;28;20515;-71
2022/08/28 00:06:50;;;;;;;46.60;16.17;;;;;;;40.23;34.27;101155.16;5018876;28;20428;-70
2022/08/28 00:09:16;;;;;;;30.43;12.00;;;;;;;40.41;33.62;101150.56;5013854;28;20880;-70
2022/08/28 00:11:42;;;;;;;30.17;14.87;;;;;;;40.64;33.72;101145.84;5012512;28;20420;-71
2022/08/28 00:14:09;;;;;;;31.13;14.40;;;;;;;40.42;33.58;101145.94;5013776;28;20401;-71
2022/08/28 00:16:36;;;;;;;40.73;14.57;;;;;;;40.38;34.03;101147.69;5013628;28;20404;-70
2022/08/28 00:19:03;;;;;;;35.77;14.17;;;;;;;40.54;33.73;101140.72;5011994;28;20423;-70
2022/08/28 00:21:31;;;;;;;35.13;13.73;;;;;;;40.18;33.76;101143.63;5011888;28;21095;-72
2022/08/28 00:23:58;;;;;;;31.43;12.10;;;;;;;40.27;34.01;101139.03;5028161;28;20571;-70
2022/08/28 00:29:10;;;;;;;34.57;14.57;;;;;;;40.56;33.29;101122.16;5013265;28;20473;-70
2022/08/28 00:31:38;;;;;;;43.07;14.60;;;;;;;40.22;33.99;101126.38;5028276;28;20448;-70
2022/08/28 00:34:06;;;;;;;26.13;13.10;;;;;;;40.46;33.74;101130.59;5012910;28;20408;-71
2022/08/28 00:36:33;;;;;;;30.03;13.97;;;;;;;40.47;33.84;101116.72;5013344;28;20896;-68
2022/08/28 00:38:59;;;;;;;43.50;15.53;;;;;;;40.20;33.62;101119.66;5011485;28;20428;-71
2022/08/28 00:41:30;;;;;;;39.13;14.23;;;;;;;40.20;33.71;101112.31;5011516;28;20940;-71
2022/08/28 00:44:15;;;;;;;32.97;13.13;;;;;;;40.20;34.14;101125.09;5028117;28;20491;-71
2022/08/28 00:46:43;;;;;;;40.27;16.30;;;;;;;40.41;34.19;101119.88;5011616;28;20420;-71
2022/08/28 00:49:11;;;;;;;35.27;14.97;;;;;;;40.34;33.69;101125.78;5011509;28;20913;-71
2022/08/28 00:54:24;;;;;;;23.53;12.27;;;;;;;40.12;34.29;101107.66;5012692;28;20915;-70
2022/08/28 00:56:52;;;;;;;31.97;15.03;;;;;;;40.48;33.84;101109.34;5011337;28;20975;-71
2022/08/28 00:59:21;;;;;;;34.30;13.60;;;;;;;40.44;33.92;101103.72;5011399;28;20452;-70
2022/08/28 01:01:48;;;;;;;33.13;15.83;;;;;;;40.36;34.45;101103.72;5011327;28;20472;-71
2022/08/28 01:04:19;;;;;;;48.50;17.73;;;;;;;40.45;34.41;101099.06;5011427;28;20420;-71
2022/08/28 01:06:52;;;;;;;23.60;12.47;;;;;;;40.37;34.26;101083.56;5012537;28;20495;-71
2022/08/28 01:09:21;;;;;;;38.33;13.90;;;;;;;40.34;33.93;101087.72;5011491;28;20420;-71
2022/08/28 01:11:48;;;;;;;26.43;13.40;;;;;;;40.31;34.28;101077.47;5011127;28;20427;-71
2022/08/28 01:14:19;;;;;;;32.73;15.33;;;;;;;40.26;34.07;101081.13;5011526;28;20491;-71
2022/08/28 01:16:48;;;;;;;27.53;14.03;;;;;;;40.26;33.60;101083.84;5012749;28;20412;-71
2022/08/28 01:19:20;;;;;;;20.47;11.83;;;;;;;40.14;34.11;101075.53;5027701;28;20452;-71
2022/08/28 01:21:57;;;;;;;29.23;13.97;;;;;;;40.42;33.88;101073.34;5012665;28;20532;-71
2022/08/28 01:24:24;;;;;;;36.20;14.13;;;;;;;40.28;34.08;101068.06;5027741;28;20436;-71
2022/08/28 01:26:50;;;;;;;35.10;14.00;;;;;;;40.22;33.83;101054.94;5011224;28;20542;-71
2022/08/28 01:29:16;;;;;;;33.80;15.93;;;;;;;40.39;34.18;101051.41;5011159;28;20955;-69
2022/08/28 01:31:42;;;;;;;31.73;15.53;;;;;;;40.44;33.88;101048.53;5011156;28;20416;-69
2022/08/28 01:34:11;;;;;;;26.80;13.10;;;;;;;40.53;33.87;101046.66;5027673;28;20444;-71
2022/08/28 01:36:38;;;;;;;34.10;13.10;;;;;;;40.31;34.22;101050.28;5011079;28;20428;-71
2022/08/28 01:39:13;;;;;;;31.27;14.30;;;;;;;40.37;34.24;101043.59;5027462;28;21000;-71
2022/08/28 01:41:42;;;;;;;43.93;14.30;;;;;;;40.53;33.96;101042.03;5010976;28;20475;-71
2022/08/28 01:44:08;;;;;;;31.07;15.13;;;;;;;40.29;34.24;101034.31;5010985;28;20943;-71
2022/08/28 01:46:35;;;;;;;30.33;13.20;;;;;;;40.31;33.89;101027.75;5011015;28;20424;-71
2022/08/28 01:49:01;;;;;;;34.63;16.20;;;;;;;40.37;33.91;101031.91;5027480;28;20464;-71
2022/08/28 01:51:27;;;;;;;26.63;13.37;;;;;;;40.41;33.96;101030.97;5027279;28;20436;-71
2022/08/28 01:53:53;;;;;;;28.53;14.50;;;;;;;40.35;33.98;101018.66;4994946;28;20447;-71
2022/08/28 01:56:19;;;;;;;37.60;14.30;;;;;;;40.59;33.35;101014.69;5010443;28;20514;-71
2022/08/28 01:58:47;;;;;;;27.20;12.60;;;;;;;40.70;33.51;101022.19;5027411;28;20420;-69
2022/08/28 02:01:16;;;;;;;37.37;16.30;;;;;;;40.62;33.56;101025.69;5010043;28;21065;-71
2022/08/28 02:03:42;;;;;;;40.43;17.27;;;;;;;40.17;34.14;101025.19;5011239;28;20439;-71
2022/08/28 02:06:09;;;;;;;26.13;12.87;;;;;;;40.07;34.48;101022.78;5026659;28;20461;-71
2022/08/28 02:08:36;;;;;;;46.20;17.03;;;;;;;40.30;34.28;101024.25;5011596;28;20478;-71
2022/08/28 02:11:05;;;;;;;29.73;14.73;;;;;;;40.46;33.54;101027.28;5014872;28;20432;-70
2022/08/28 02:13:31;;;;;;;34.83;17.13;;;;;;;40.57;33.71;101019.63;5013918;28;20898;-71
2022/08/28 02:15:57;;;;;;;38.13;12.77;;;;;;;40.38;33.50;101023.44;5029829;28;20420;-68
2022/08/28 02:18:23;;;;;;;24.90;12.53;;;;;;;40.13;33.59;101024.22;5013607;28;20566;-68
2022/08/28 02:20:50;;;;;;;29.23;12.83;;;;;;;40.05;34.27;101025.00;5014662;28;20491;-68
2022/08/28 02:23:16;;;;;;;31.33;13.93;;;;;;;39.80;34.30;101021.09;5030076;28;20598;-70
2022/08/28 02:25:42;;;;;;;34.17;13.23;;;;;;;39.66;34.98;101024.72;5012873;28;20444;-71
2022/08/28 02:28:08;;;;;;;37.40;14.87;;;;;;;39.69;34.94;101021.38;5012561;28;20932;-70
2022/08/28 02:30:35;;;;;;;34.03;16.23;;;;;;;39.66;34.64;101021.22;5012093;28;20523;-70
2022/08/28 02:33:01;;;;;;;45.27;17.30;;;;;;;39.57;34.98;101021.13;5013862;28;20420;-70
2022/08/28 02:35:27;;;;;;;24.53;14.77;;;;;;;39.15;35.47;101019.78;5013782;28;20538;-70
2022/08/28 02:37:53;;;;;;;27.23;13.80;;;;;;;39.68;35.07;101018.97;5015468;28;20404;-71
2022/08/28 02:40:21;;;;;;;32.97;13.17;;;;;;;39.81;34.53;101014.53;5030113;28;20515;-71
2022/08/28 02:42:49;;;;;;;27.27;11.43;;;;;;;39.72;34.66;101025.38;5013672;28;20431;-69
2022/08/28 02:45:16;;;;;;;26.37;15.20;;;;;;;39.64;34.58;101013.38;5013680;28;20427;-68
2022/08/28 02:47:44;;;;;;;30.70;13.80;;;;;;;39.62;34.91;101014.81;5013499;28;20503;-70
2022/08/28 02:50:13;;;;;;;37.77;14.87;;;;;;;39.62;34.65;101012.09;5013603;28;20425;-70
2022/08/28 02:52:40;;;;;;;34.20;12.20;;;;;;;40.08;34.21;101013.50;5013568;28;20523;-71
2022/08/28 02:55:08;;;;;;;40.07;16.80;;;;;;;40.25;33.98;101017.03;5013546;28;20429;-71
2022/08/28 02:57:34;;;;;;;41.07;13.17;;;;;;;40.09;34.19;101015.91;5013377;28;20510;-71
2022/08/28 03:00:02;;;;;;;31.80;13.00;;;;;;;40.21;33.62;101015.28;5015123;28;20768;-71
2022/08/28 03:02:28;;;;;;;30.90;14.20;;;;;;;40.00;34.37;101020.50;5013375;28;20558;-71
2022/08/28 03:04:54;;;;;;;30.10;13.90;;;;;;;39.86;34.79;101019.81;5029267;28;20432;-71
2022/08/28 03:07:21;;;;;;;48.70;15.87;;;;;;;39.77;34.86;101019.78;5029032;28;20432;-70
2022/08/28 03:09:48;;;;;;;33.70;13.37;;;;;;;39.78;34.71;101020.59;5012596;28;20427;-71
2022/08/28 03:12:15;;;;;;;27.93;12.73;;;;;;;39.92;34.37;101007.69;5012555;28;20423;-71
2022/08/28 03:14:42;;;;;;;42.63;14.40;;;;;;;39.94;34.34;101017.13;5012408;28;20413;-71
2022/08/28 03:17:08;;;;;;;33.43;15.20;;;;;;;40.15;33.55;101022.00;5012430;28;20924;-69
2022/08/28 03:19:34;;;;;;;30.30;13.93;;;;;;;39.90;33.99;101021.59;5013638;28;20405;-69
2022/08/28 03:22:00;;;;;;;25.83;10.87;;;;;;;39.91;33.81;101019.69;5011478;28;20694;-70
2022/08/28 03:24:26;;;;;;;26.27;14.03;;;;;;;39.99;33.98;101024.31;5010996;28;20504;-70
2022/08/28 03:26:53;;;;;;;20.60;11.00;;;;;;;40.07;33.67;101023.56;5010803;28;20413;-70
2022/08/28 03:29:19;;;;;;;51.57;14.23;;;;;;;40.13;33.67;101016.84;5012307;28;20417;-71
2022/08/28 03:31:45;;;;;;;37.53;13.00;;;;;;;39.96;33.95;101012.19;5012772;28;20471;-68
2022/08/28 03:34:11;;;;;;;28.97;14.23;;;;;;;40.00;33.94;101024.00;5014106;28;20447;-71
2022/08/28 03:36:37;;;;;;;37.03;12.57;;;;;;;39.77;33.68;101025.22;5029120;28;20437;-70
2022/08/28 03:39:05;;;;;;;27.53;12.87;;;;;;;39.90;34.16;101020.78;5029164;28;20412;-70
2022/08/28 03:41:33;;;;;;;29.60;13.27;;;;;;;39.85;33.84;101024.47;5012610;28;20464;-71
2022/08/28 03:44:00;;;;;;;36.33;15.27;;;;;;;39.73;34.37;101029.69;5012638;28;20416;-71
2022/08/28 03:46:28;;;;;;;28.30;12.07;;;;;;;39.83;34.40;101026.69;5012578;28;20860;-70
2022/08/28 03:48:54;;;;;;;38.67;15.57;;;;;;;39.99;33.92;101030.56;5012499;28;20408;-70
2022/08/28 03:51:28;;;;;;;39.00;15.77;;;;;;;40.12;33.82;101031.56;5012678;28;21013;-70
2022/08/28 03:53:54;;;;;;;26.10;13.97;;;;;;;39.61;34.76;101030.28;5012371;28;20504;-70
2022/08/28 03:56:23;;;;;;;26.90;14.63;;;;;;;39.73;34.27;101035.13;5028746;28;20412;-71
2022/08/28 03:58:51;;;;;;;29.87;12.20;;;;;;;39.95;34.26;101037.72;5012543;28;20476;-71
2022/08/28 04:01:19;;;;;;;47.20;13.93;;;;;;;39.87;34.27;101035.00;5012253;28;20499;-70
2022/08/28 04:03:45;;;;;;;31.60;16.33;;;;;;;39.91;34.46;101031.34;5012220;28;20483;-68
2022/08/28 04:06:12;;;;;;;35.43;14.03;;;;;;;39.97;34.04;101034.72;5013564;28;20990;-69
2022/08/28 04:08:39;;;;;;;28.53;16.00;;;;;;;40.06;34.09;101041.00;5012065;28;20467;-71
2022/08/28 04:11:05;;;;;;;23.53;12.97;;;;;;;40.20;33.70;101038.91;5012062;28;20498;-68
2022/08/28 04:13:32;;;;;;;28.53;14.00;;;;;;;40.19;33.24;101044.69;5012199;28;20428;-70
2022/08/28 04:16:04;;;;;;;42.40;12.90;;;;;;;40.20;33.41;101049.78;5012089;28;20464;-70
2022/08/28 04:18:30;;;;;;;27.03;13.67;;;;;;;40.08;33.51;101043.38;5011981;28;20421;-70
2022/08/28 04:21:08;;;;;;;25.47;14.63;;;;;;;40.02;33.64;101034.53;4995597;28;20468;-68
2022/08/28 04:23:37;;;;;;;25.63;14.77;;;;;;;40.02;33.37;101031.84;5011970;28;20472;-70
2022/08/28 04:26:07;;;;;;;28.40;12.50;;;;;;;40.12;33.48;101036.22;5013443;28;20474;-69
2022/08/28 04:28:33;;;;;;;30.50;12.27;;;;;;;39.90;33.70;101028.94;5011791;28;20498;-70
2022/08/28 04:31:00;;;;;;;24.33;12.63;;;;;;;39.83;34.23;101025.88;5011319;28;20408;-71
2022/08/28 04:33:27;;;;;;;25.70;14.60;;;;;;;39.56;34.59;101024.97;5011827;28;20428;-71
2022/08/28 04:35:54;;;;;;;31.97;13.90;;;;;;;39.48;34.58;101025.75;5011661;28;20452;-70
2022/08/28 04:38:21;;;;;;;25.60;11.67;;;;;;;39.54;34.21;101034.56;5013285;28;20452;-68
2022/08/28 04:40:47;;;;;;;30.43;12.27;;;;;;;39.75;34.49;101027.47;5011527;28;20547;-69
2022/08/28 04:43:13;;;;;;;28.97;10.50;;;;;;;39.86;34.34;101023.34;5011841;28;20432;-68
2022/08/28 04:45:42;;;;;;;32.93;14.43;;;;;;;39.89;34.20;101024.63;5011583;28;20424;-69
2022/08/28 04:48:11;;;;;;;33.90;13.10;;;;;;;39.99;34.21;101024.31;5013073;28;20456;-68
2022/08/28 04:50:46;;;;;;;36.07;14.93;;;;;;;39.91;33.83;101028.63;5011486;28;20920;-71
2022/08/28 04:53:13;;;;;;;33.73;15.17;;;;;;;40.09;33.63;101031.41;5011567;28;20439;-71
2022/08/28 04:55:49;;;;;;;31.03;15.87;;;;;;;39.75;34.24;101028.25;5011313;28;20432;-71
2022/08/28 04:58:16;;;;;;;41.57;16.73;;;;;;;39.54;34.43;101042.69;5013004;28;20436;-69
2022/08/28 05:00:45;;;;;;;38.57;15.57;;;;;;;39.75;34.41;101032.88;5027619;28;20539;-71
2022/08/28 05:03:12;;;;;;;45.77;14.93;;;;;;;39.96;34.02;101028.50;5011512;28;20821;-68
2022/08/28 05:05:52;;;;;;;35.83;13.70;;;;;;;40.20;33.80;101038.91;5011158;28;20413;-70
2022/08/28 05:08:21;;;;;;;24.97;13.90;;;;;;;40.05;33.79;101044.81;5011452;28;20507;-71
2022/08/28 05:10:48;;;;;;;23.67;13.60;;;;;;;40.21;33.13;101051.41;4994876;28;20479;-71
2022/08/28 05:13:15;;;;;;;43.73;17.87;;;;;;;40.26;33.61;101051.25;5013015;28;20404;-71
2022/08/28 05:15:44;;;;;;;37.47;14.10;;;;;;;40.03;34.08;101052.47;5011226;28;20420;-70
2022/08/28 05:18:15;;;;;;;36.10;15.37;;;;;;;39.91;33.86;101053.09;5011181;28;20476;-70
2022/08/28 05:20:46;;;;;;;41.97;14.70;;;;;;;39.39;34.85;101057.47;5027653;28;20460;-70
2022/08/28 05:23:14;;;;;;;33.17;13.80;;;;;;;39.85;33.78;101053.53;5011040;28;20821;-68
2022/08/28 05:25:45;;;;;;;21.90;12.30;;;;;;;39.81;34.14;101049.84;5011067;28;21031;-70
2022/08/28 05:28:12;;;;;;;27.40;13.97;;;;;;;39.79;34.47;101046.66;5011118;28;20909;-71
2022/08/28 05:30:40;;;;;;;30.27;13.10;;;;;;;39.77;34.28;101057.81;5011172;28;20420;-71
2022/08/28 05:33:08;;;;;;;46.20;15.27;;;;;;;39.93;34.13;101050.84;5010999;28;20445;-69
2022/08/28 05:35:39;;;;;;;24.63;11.13;;;;;;;40.06;33.58;101049.13;5012730;28;20401;-68
2022/08/28 05:38:07;;;;;;;29.10;12.40;;;;;;;40.32;33.45;101048.38;5011031;28;20428;-70
2022/08/28 05:40:39;;;;;;;33.23;13.70;;;;;;;40.52;32.96;101056.75;5010929;28;20455;-71
2022/08/28 05:43:05;;;;;;;27.33;11.90;;;;;;;40.26;32.98;101056.69;5028331;28;20427;-70
2022/08/28 05:45:31;;;;;;;26.17;14.10;;;;;;;40.22;33.36;101061.16;5031220;28;20420;-71
2022/08/28 05:47:57;;;;;;;36.67;13.47;;;;;;;40.59;32.48;101053.53;5014682;28;21042;-68
2022/08/28 05:50:23;;;;;;;35.73;13.70;;;;;;;40.55;32.89;101061.53;5014610;28;20519;-70
2022/08/28 05:52:49;;;;;;;29.10;13.50;;;;;;;40.61;32.82;101062.19;5030956;28;20427;-71
2022/08/28 05:55:15;;;;;;;27.40;9.70;;;;;;;40.61;32.94;101062.19;5014746;28;20447;-68
2022/08/28 05:57:41;;;;;;;32.20;12.67;;;;;;;40.75;32.79;101064.72;5030899;28;20428;-68
2022/08/28 06:00:12;;;;;;;25.80;14.90;;;;;;;40.63;32.84;101061.84;5031105;28;20420;-70
2022/08/28 06:02:39;;;;;;;31.43;14.00;;;;;;;40.50;32.34;101061.69;5015871;28;20494;-70
2022/08/28 06:05:06;;;;;;;27.30;11.30;;;;;;;40.63;32.04;101061.84;5015887;28;20425;-70
2022/08/28 06:07:32;;;;;;;36.20;14.23;;;;;;;40.63;32.38;101065.38;5030782;28;20874;-69
2022/08/28 06:09:58;;;;;;;25.17;12.90;;;;;;;40.51;32.57;101067.91;5014345;28;20408;-69
2022/08/28 06:12:24;;;;;;;26.20;12.93;;;;;;;40.53;32.50;101054.81;5015993;28;20407;-68
2022/08/28 06:14:51;;;;;;;18.40;11.87;;;;;;;40.51;32.65;101060.56;5014186;28;20471;-70
2022/08/28 06:17:17;;;;;;;28.10;13.60;;;;;;;40.58;32.58;101070.16;5014339;28;20781;-70
2022/08/28 06:19:43;;;;;;;23.23;12.97;;;;;;;40.73;32.46;101072.41;5030870;28;20421;-71
2022/08/28 06:22:11;;;;;;;27.33;14.90;;;;;;;40.68;32.18;101076.09;5030778;28;20460;-70
2022/08/28 06:24:37;;;;;;;29.63;14.90;;;;;;;40.61;32.65;101075.78;5014162;28;20987;-71
2022/08/28 06:27:03;;;;;;;23.93;12.43;;;;;;;40.52;32.59;101077.72;5013972;28;20421;-71
2022/08/28 06:29:30;;;;;;;29.07;13.47;;;;;;;40.70;32.56;101079.31;5013977;28;20563;-71
2022/08/28 06:32:00;;;;;;;28.90;12.90;;;;;;;40.69;32.43;101079.59;5015684;28;20815;-68
2022/08/28 06:34:27;;;;;;;31.40;11.73;;;;;;;40.74;32.15;101087.59;5030373;28;20416;-70
2022/08/28 06:36:54;;;;;;;29.27;12.47;;;;;;;40.90;32.11;101090.66;5015556;28;20393;-70
2022/08/28 06:39:21;;;;;;;32.23;11.77;;;;;;;41.02;31.95;101107.94;5013822;28;20420;-70
2022/08/28 06:41:47;;;;;;;27.63;12.70;;;;;;;40.84;31.89;101103.63;5030223;28;20528;-70
2022/08/28 06:44:18;;;;;;;27.27;13.80;;;;;;;40.76;32.12;101116.09;5030211;28;20424;-71
2022/08/28 06:46:46;;;;;;;37.97;14.63;;;;;;;40.91;31.94;101111.31;5014350;28;20416;-71
2022/08/28 06:49:15;;;;;;;31.27;13.43;;;;;;;40.95;32.29;101123.16;5015285;28;20407;-70
2022/08/28 06:51:42;;;;;;;141.93;82.83;;;;;;;40.71;32.62;101124.41;5030082;28;20508;-71
2022/08/28 06:54:09;;;;;;;36.13;17.13;;;;;;;40.67;32.69;101128.09;5013325;28;20421;-71
2022/08/28 06:56:35;;;;;;;37.70;11.67;;;;;;;40.79;31.93;101129.06;5013400;28;20444;-70
2022/08/28 06:59:01;;;;;;;30.33;13.37;;;;;;;40.79;32.28;101139.94;5013544;28;20425;-70
2022/08/28 07:01:31;;;;;;;37.13;16.00;;;;;;;40.95;32.54;101144.94;5013447;28;20467;-71
2022/08/28 07:04:03;;;;;;;44.30;16.80;;;;;;;40.84;32.24;101140.91;5013398;28;20940;-71
2022/08/28 07:06:36;;;;;;;24.63;15.00;;;;;;;41.00;32.16;101144.75;5013306;28;20456;-71
2022/08/28 07:09:04;;;;;;;45.57;12.73;;;;;;;40.98;32.36;101150.53;5013630;28;20424;-71
2022/08/28 07:11:32;;;;;;;27.87;14.20;;;;;;;40.94;32.88;101160.44;5029735;28;20612;-71
2022/08/28 07:13:59;;;;;;;30.47;15.57;;;;;;;41.07;32.41;101166.88;5013098;28;20416;-70
2022/08/28 07:16:32;;;;;;;21.63;11.90;;;;;;;41.06;32.35;101165.25;5013165;28;20413;-71
2022/08/28 07:19:01;;;;;;;33.90;12.97;;;;;;;40.89;32.66;101166.03;5012775;28;20545;-70
2022/08/28 07:21:27;;;;;;;41.30;16.43;;;;;;;40.85;32.67;101173.22;5012364;28;20462;-67
2022/08/28 07:23:54;;;;;;;33.90;17.93;;;;;;;41.00;32.91;101183.63;5028744;28;20843;-67
2022/08/28 07:26:23;;;;;;;28.63;13.10;;;;;;;41.04;32.25;101191.97;5012645;28;20498;-71
2022/08/28 07:28:51;;;;;;;32.53;14.53;;;;;;;41.10;32.22;101190.69;5012156;28;20456;-70
2022/08/28 07:31:21;;;;;;;40.60;14.30;;;;;;;40.58;33.04;101206.94;5012164;28;20448;-70
2022/08/28 07:33:48;;;;;;;22.73;11.20;;;;;;;40.84;32.65;101211.63;5012260;28;20424;-71
2022/08/28 07:36:17;;;;;;;33.13;13.57;;;;;;;40.70;33.24;101219.91;5028745;28;20412;-70
2022/08/28 07:38:44;;;;;;;30.87;13.27;;;;;;;40.86;32.69;101214.81;5012319;28;20431;-71
2022/08/28 07:41:18;;;;;;;28.20;12.47;;;;;;;40.93;32.15;101224.13;5028798;28;20537;-71
2022/08/28 07:46:30;;;;;;;24.20;11.37;;;;;;;41.27;31.92;101233.44;5013544;28;20448;-71
2022/08/28 07:49:00;;;;;;;29.73;14.20;;;;;;;41.29;32.09;101237.44;5013528;28;20425;-69
2022/08/28 07:51:27;;;;;;;28.53;14.47;;;;;;;40.86;32.47;101244.75;5020755;28;20508;-69
2022/08/28 07:53:56;;;;;;;32.50;14.10;;;;;;;40.94;32.33;101239.34;5020196;28;20412;-69
2022/08/28 07:56:23;;;;;;;33.83;14.83;;;;;;;40.81;32.69;101249.22;5022561;28;20903;-67
2022/08/28 07:58:50;;;;;;;29.83;14.57;;;;;;;40.98;32.44;101251.19;5022473;28;20423;-69
2022/08/28 08:01:16;;;;;;;40.27;13.23;;;;;;;40.37;33.47;101262.97;5026597;28;20486;-71
2022/08/28 08:03:43;;;;;;;24.50;12.97;;;;;;;40.43;33.29;101259.00;5032450;28;20483;-70
2022/08/28 08:06:12;;;;;;;24.93;13.17;;;;;;;40.32;33.24;101263.09;5032439;28;20423;-67
2022/08/28 08:08:39;;;;;;;31.70;13.77;;;;;;;40.14;33.68;101267.66;5048153;28;20952;-71
2022/08/28 08:11:12;;;;;;;29.23;15.60;;;;;;;40.58;33.16;101261.34;5031228;28;20408;-71
2022/08/28 08:13:39;;;;;;;25.23;13.27;;;;;;;40.46;32.70;101269.25;5030447;28;20419;-69
2022/08/28 08:16:15;;;;;;;24.93;14.10;;;;;;;40.50;33.30;101275.69;5039150;28;20440;-69
2022/08/28 08:18:42;;;;;;;44.30;15.10;;;;;;;40.54;33.11;101274.75;5018287;28;20440;-70
2022/08/28 08:21:11;;;;;;;36.70;15.73;;;;;;;40.71;32.67;101267.78;5027066;28;20976;-70
2022/08/28 08:23:37;;;;;;;31.93;11.83;;;;;;;40.74;32.63;101269.84;5011167;28;20471;-72
2022/08/28 08:26:07;;;;;;;38.80;14.50;;;;;;;40.94;32.56;101280.16;5031344;28;20439;-70
2022/08/28 08:28:37;;;;;;;24.53;12.87;;;;;;;40.92;32.44;101274.22;5015777;28;20958;-70
2022/08/28 08:31:17;;;;;;;35.13;15.40;;;;;;;40.99;32.44;101281.94;5031480;28;20428;-70
2022/08/28 08:33:49;;;;;;;49.50;15.30;;;;;;;41.01;32.43;101287.88;5031491;28;20447;-70
2022/08/28 08:36:18;;;;;;;23.97;13.80;;;;;;;41.28;32.25;101284.84;5030722;28;20419;-72
2022/08/28 08:38:45;;;;;;;48.37;14.03;;;;;;;41.45;32.15;101286.00;5015010;28;20416;-72
2022/08/28 08:41:18;;;;;;;28.40;12.63;;;;;;;41.02;32.37;101292.19;5032653;28;20969;-69
2022/08/28 08:43:56;;;;;;;25.80;13.93;;;;;;;41.10;32.35;101287.88;5031254;28;20426;-69
2022/08/28 08:46:42;;;;;;;23.20;12.47;;;;;;;40.94;32.55;101285.59;5031214;28;20419;-69
2022/08/28 08:49:17;;;;;;;23.60;13.77;;;;;;;41.21;32.28;101289.97;5031130;28;20808;-69
2022/08/28 08:52:08;;;;;;;27.10;11.97;;;;;;;41.17;31.88;101288.19;5030914;28;20894;-71
2022/08/28 08:54:39;;;;;;;28.40;13.67;;;;;;;41.33;31.86;101287.44;5014071;28;20482;-71
2022/08/28 08:57:09;;;;;;;38.10;13.30;;;;;;;41.48;31.39;101293.53;5011497;28;20416;-69
2022/08/28 08:59:38;;;;;;;30.10;14.27;;;;;;;41.47;31.82;101292.72;5011329;28;20515;-69
2022/08/28 09:02:21;;;;;;;29.50;13.07;;;;;;;41.72;31.25;101298.47;5011330;28;20910;-69
2022/08/28 09:04:56;;;;;;;26.37;12.80;;;;;;;41.50;31.58;101302.19;5010709;28;20412;-68
2022/08/28 09:07:36;;;;;;;38.27;14.53;;;;;;;41.74;31.07;101313.41;5028519;28;20793;-68
2022/08/28 09:10:05;;;;;;;33.07;13.40;;;;;;;41.76;31.08;101315.81;5032142;28;20834;-70
2022/08/28 09:12:43;;;;;;;26.73;11.63;;;;;;;41.57;31.06;101314.19;5030840;28;20450;-69
2022/08/28 09:15:35;;;;;;;35.37;14.40;;;;;;;41.49;31.50;101314.97;5030851;28;20412;-69
2022/08/28 09:18:26;;;;;;;24.37;12.07;;;;;;;41.47;31.89;101319.16;5016201;28;20458;-69
2022/08/28 09:20:57;;;;;;;26.43;11.43;;;;;;;41.61;31.84;101323.31;5031152;28;20859;-71
2022/08/28 09:23:25;;;;;;;20.13;11.63;;;;;;;41.55;31.73;101337.41;5034554;28;20494;-69
2022/08/28 09:25:54;;;;;;;23.43;12.43;;;;;;;41.37;32.30;101341.25;5034162;28;20527;-69
2022/08/28 09:28:22;;;;;;;29.20;12.73;;;;;;;41.60;31.86;101339.97;5034864;28;20415;-69
2022/08/28 09:31:05;;;;;;;29.57;13.33;;;;;;;41.56;31.70;101342.56;5025960;28;20427;-68
2022/08/28 09:33:45;;;;;;;27.30;13.73;;;;;;;41.76;30.83;101343.06;5034457;28;20573;-70
2022/08/28 09:36:28;;;;;;;23.40;10.70;;;;;;;41.74;31.28;101345.25;5046259;28;20424;-71
2022/08/28 09:39:14;;;;;;;18.50;13.20;;;;;;;41.79;30.89;101351.38;5030355;28;20503;-68
2022/08/28 09:44:45;;;;;;;22.20;11.70;;;;;;;41.75;31.42;101347.72;5033451;28;20488;-68
2022/08/28 09:47:50;;;;;;;26.77;14.23;;;;;;;41.92;30.87;101341.41;5033996;28;20445;-69
2022/08/28 09:50:51;;;;;;;43.00;12.63;;;;;;;41.96;30.56;101341.59;5035261;28;20486;-67
2022/08/28 09:53:20;;;;;;;23.97;12.70;;;;;;;42.12;30.76;101348.13;5018786;28;20418;-71
2022/08/28 09:55:53;;;;;;;21.63;12.03;;;;;;;42.21;30.38;101337.22;5033507;28;20411;-72
2022/08/28 09:58:21;;;;;;;25.20;14.33;;;;;;;42.16;30.60;101342.81;5031820;28;20423;-68
2022/08/28 10:01:04;;;;;;;24.63;13.17;;;;;;;41.98;30.83;101342.84;5032199;28;20420;-69
2022/08/28 10:03:42;;;;;;;26.17;12.17;;;;;;;41.95;31.02;101337.25;5032036;28;20497;-67
2022/08/28 10:06:34;;;;;;;29.23;14.70;;;;;;;42.12;31.16;101338.03;5026872;28;20431;-67
2022/08/28 10:09:15;;;;;;;35.53;12.40;;;;;;;42.10;31.20;101336.75;5032364;28;20481;-68
2022/08/28 10:11:44;;;;;;;19.30;11.97;;;;;;;42.08;30.97;101339.78;5031860;28;20495;-66
2022/08/28 10:14:37;;;;;;;21.20;14.50;;;;;;;42.05;30.88;101332.28;5033584;28;20915;-66
2022/08/28 10:17:42;;;;;;;27.23;13.57;;;;;;;42.16;30.80;101338.19;5032223;28;20477;-75
2022/08/28 10:20:14;;;;;;;32.40;15.17;;;;;;;42.33;30.62;101329.19;5032475;28;20419;-74
2022/08/28 10:22:48;;;;;;;42.27;15.03;;;;;;;42.50;30.13;101333.78;5033215;28;20463;-77
2022/08/28 10:25:45;;;;;;;29.73;13.67;;;;;;;42.55;30.19;101322.69;5030903;28;20806;-75
2022/08/28 10:28:37;;;;;;;23.20;13.40;;;;;;;42.71;30.19;101317.50;5049097;28;20440;-72
2022/08/28 10:31:28;;;;;;;27.33;13.33;;;;;;;42.79;30.03;101322.13;5033815;28;20407;-73
2022/08/28 10:34:05;;;;;;;27.23;12.57;;;;;;;42.88;29.80;101314.66;5033316;28;20783;-74
2022/08/28 10:36:34;;;;;;;32.00;15.37;;;;;;;43.07;30.02;101311.53;5035100;28;20430;-73
2022/08/28 10:39:34;;;;;;;26.40;12.93;;;;;;;42.82;30.20;101319.50;5033763;28;20411;-70
2022/08/28 10:42:03;;;;;;;23.30;12.70;;;;;;;43.32;29.06;101315.19;5034975;28;20457;-71
2022/08/28 10:44:53;;;;;;;22.13;10.90;;;;;;;43.17;29.23;101306.47;5034956;28;20483;-71
2022/08/28 10:47:21;;;;;;;22.07;11.53;;;;;;;43.06;29.27;101313.47;5033606;28;20411;-71
2022/08/28 10:49:52;;;;;;;20.33;11.63;;;;;;;43.10;29.21;101313.59;5032837;28;20491;-69
2022/08/28 10:52:38;;;;;;;27.53;15.97;;;;;;;43.19;29.29;101306.13;5033353;28;20470;-69
2022/08/28 10:55:16;;;;;;;28.17;11.23;;;;;;;43.07;29.36;101317.00;5033123;28;20427;-71
2022/08/28 10:58:11;;;;;;;21.00;12.20;;;;;;;43.22;29.23;101312.84;5048731;28;20514;-71
2022/08/28 11:00:42;;;;;;;21.60;13.80;;;;;;;43.30;29.17;101318.25;5046017;28;20517;-70
2022/08/28 11:03:15;;;;;;;24.77;11.70;;;;;;;43.23;29.05;101311.75;5033111;28;20423;-70
2022/08/28 11:05:46;;;;;;;34.43;14.30;;;;;;;43.18;29.00;101310.81;5029303;28;20816;-73
2022/08/28 11:08:28;;;;;;;20.00;9.87;;;;;;;43.13;29.14;101313.72;5028128;28;20427;-72
2022/08/28 11:10:59;;;;;;;23.87;12.07;;;;;;;43.21;28.71;101306.59;5032723;28;20542;-71
2022/08/28 11:13:48;;;;;;;33.43;12.40;;;;;;;43.21;28.82;101300.34;5032585;28;20530;-68
2022/08/28 11:16:32;;;;;;;30.00;14.00;;;;;;;43.37;28.61;101309.53;5034628;28;20407;-68
2022/08/28 11:19:06;;;;;;;26.10;12.20;;;;;;;43.36;28.90;101306.00;5033270;28;20423;-68
2022/08/28 11:21:43;;;;;;;29.50;11.93;;;;;;;43.57;28.63;101311.47;5030921;28;20444;-68
2022/08/28 11:24:42;;;;;;;28.83;11.93;;;;;;;43.34;29.01;101299.25;5028348;28;20608;-69
2022/08/28 11:27:32;;;;;;;20.60;11.40;;;;;;;43.50;28.81;101294.03;5032983;28;20511;-69
2022/08/28 11:30:23;;;;;;;28.20;11.20;;;;;;;43.71;28.79;101301.06;5034522;28;20380;-69
2022/08/28 11:32:49;;;;;;;23.00;12.00;;;;;;;43.78;28.42;101291.53;5032781;28;20506;-69
2022/08/28 11:35:15;;;;;;;33.03;12.90;;;;;;;43.71;28.60;101290.13;5032424;28;20880;-68
2022/08/28 11:37:50;;;;;;;22.73;11.43;;;;;;;43.73;28.83;101281.59;5032768;28;20419;-69